sensor_id;sensor_type;location;lat;lon;timestamp;pressure;altitude;pressure_sealevel;temperature;humidity
11077;BME280;5591;42.626;23.380;2022-09-12T00:01:06;93974.44;;;15.92;100.00
11077;BME280;5591;42.626;23.380;2022-09-12T00:03:34;93987.41;;;15.82;100.00
11077;BME280;5591;42.626;23.380;2022-09-12T00:06:07;93999.59;;;15.83;100.00
11077;BME280;5591;42.626;23.380;2022-09-12T00:08:34;93993.59;;;15.76;100.00
11077;BME280;5591;42.626;23.380;2022-09-12T00:11:04;93993.72;;;15.81;100.00
11077;BME280;5591;42.626;23.380;2022-09-12T00:13:31;93988.25;;;15.64;100.00
11077;BME280;5591;42.626;23.380;2022-09-12T00:15:58;93989.41;;;15.68;100.00
11077;BME280;5591;42.626;23.380;2022-09-12T00:18:26;94002.91;;;15.78;100.00
11077;BME280;5591;42.626;23.380;2022-09-12T00:20:53;94003.69;;;15.67;100.00
11077;BME280;5591;42.626;23.380;2022-09-12T00:23:20;94000.84;;;15.80;100.00
11077;BME280;5591;42.626;23.380;2022-09-12T00:25:48;93948.94;;;15.38;100.00
11077;BME280;5591;42.626;23.380;2022-09-12T00:28:16;94005.97;;;15.64;100.00
11077;BME280;5591;42.626;23.380;2022-09-12T00:30:45;93992.88;;;15.39;100.00
11077;BME280;5591;42.626;23.380;2022-09-12T00:33:12;94013.41;;;15.85;100.00
11077;BME280;5591;42.626;23.380;2022-09-12T00:35:42;94015.53;;;15.65;100.00
11077;BME280;5591;42.626;23.380;2022-09-12T00:38:09;93985.81;;;15.63;100.00
11077;BME280;5591;42.626;23.380;2022-09-12T00:40:36;94009.88;;;15.91;100.00
11077;BME280;5591;42.626;23.380;2022-09-12T00:43:03;94018.03;;;15.89;100.00
11077;BME280;5591;42.626;23.380;2022-09-12T00:45:31;94007.69;;;15.88;100.00
11077;BME280;5591;42.626;23.380;2022-09-12T00:48:01;94007.91;;;15.86;100.00
11077;BME280;5591;42.626;23.380;2022-09-12T00:50:30;94009.78;;;15.68;100.00
11077;BME280;5591;42.626;23.380;2022-09-12T00:53:02;94013.69;;;15.65;100.00
11077;BME280;5591;42.626;23.380;2022-09-12T00:55:33;94005.75;;;15.65;100.00
11077;BME280;5591;42.626;23.380;2022-09-12T00:58:04;94009.69;;;15.74;100.00
11077;BME280;5591;42.626;23.380;2022-09-12T01:00:34;94003.66;;;15.56;100.00
11077;BME280;5591;42.626;23.380;2022-09-12T01:03:04;94029.38;;;15.49;100.00
11077;BME280;5591;42.626;23.380;2022-09-12T01:05:34;94006.31;;;15.38;100.00
11077;BME280;5591;42.626;23.380;2022-09-12T01:08:04;93988.97;;;15.42;100.00
11077;BME280;5591;42.626;23.380;2022-09-12T01:10:33;94002.53;;;15.45;100.00
11077;BME280;5591;42.626;23.380;2022-09-12T01:13:02;93996.91;;;15.24;100.00
11077;BME280;5591;42.626;23.380;2022-09-12T01:15:30;94010.78;;;15.37;100.00
11077;BME280;5591;42.626;23.380;2022-09-12T01:18:06;93989.63;;;15.37;100.00
11077;BME280;5591;42.626;23.380;2022-09-12T01:21:04;93983.19;;;15.33;100.00
11077;BME280;5591;42.626;23.380;2022-09-12T01:27:17;93983.63;;;15.30;100.00
11077;BME280;5591;42.626;23.380;2022-09-12T01:29:59;94007.47;;;15.24;100.00
11077;BME280;5591;42.626;23.380;2022-09-12T01:32:37;93918.00;;;14.74;100.00
11077;BME280;5591;42.626;23.380;2022-09-12T01:35:18;93995.66;;;15.08;100.00
11077;BME280;5591;42.626;23.380;2022-09-12T01:37:53;93953.50;;;14.95;100.00
11077;BME280;5591;42.626;23.380;2022-09-12T01:40:30;93988.34;;;15.22;100.00
11077;BME280;5591;42.626;23.380;2022-09-12T01:43:05;93993.31;;;15.00;100.00
11077;BME280;5591;42.626;23.380;2022-09-12T01:45:40;93982.41;;;15.26;100.00
11077;BME280;5591;42.626;23.380;2022-09-12T01:48:15;93982.66;;;15.07;100.00
11077;BME280;5591;42.626;23.380;2022-09-12T01:50:48;93985.50;;;15.05;100.00
11077;BME280;5591;42.626;23.380;2022-09-12T01:53:21;93976.78;;;15.05;100.00
11077;BME280;5591;42.626;23.380;2022-09-12T01:55:52;93975.09;;;15.10;100.00
11077;BME280;5591;42.626;23.380;2022-09-12T01:58:23;93979.22;;;15.06;100.00
11077;BME280;5591;42.626;23.380;2022-09-12T02:00:57;93980.53;;;14.98;100.00
11077;BME280;5591;42.626;23.380;2022-09-12T02:03:31;93981.88;;;15.06;100.00
11077;BME280;5591;42.626;23.380;2022-09-12T02:06:02;93980.16;;;14.94;100.00
11077;BME280;5591;42.626;23.380;2022-09-12T02:08:36;93989.25;;;14.98;100.00
11077;BME280;5591;42.626;23.380;2022-09-12T02:11:08;93985.22;;;15.13;100.00
11077;BME280;5591;42.626;23.380;2022-09-12T02:13:38;93973.09;;;14.88;100.00
11077;BME280;5591;42.626;23.380;2022-09-12T02:16:09;93982.97;;;14.81;100.00
11077;BME280;5591;42.626;23.380;2022-09-12T02:18:40;93991.22;;;14.85;100.00
11077;BME280;5591;42.626;23.380;2022-09-12T02:21:10;93985.53;;;14.88;100.00
11077;BME280;5591;42.626;23.380;2022-09-12T02:23:43;93989.53;;;14.90;100.00
11077;BME280;5591;42.626;23.380;2022-09-12T02:26:16;93909.84;;;14.39;100.00
11077;BME280;5591;42.626;23.380;2022-09-12T02:28:45;93961.81;;;14.63;100.00
11077;BME280;5591;42.626;23.380;2022-09-12T02:31:18;93994.31;;;14.82;100.00
11077;BME280;5591;42.626;23.380;2022-09-12T02:33:53;93984.78;;;14.81;100.00
11077;BME280;5591;42.626;23.380;2022-09-12T02:36:33;93993.75;;;14.80;100.00
11077;BME280;5591;42.626;23.380;2022-09-12T02:39:04;93988.53;;;14.73;100.00
11077;BME280;5591;42.626;23.380;2022-09-12T02:41:31;93994.59;;;14.74;100.00
11077;BME280;5591;42.626;23.380;2022-09-12T02:43:58;93983.16;;;14.62;100.00
11077;BME280;5591;42.626;23.380;2022-09-12T02:46:30;93988.09;;;14.76;100.00
11077;BME280;5591;42.626;23.380;2022-09-12T02:49:00;93993.88;;;14.85;100.00
11077;BME280;5591;42.626;23.380;2022-09-12T02:51:27;93996.91;;;14.70;100.00
11077;BME280;5591;42.626;23.380;2022-09-12T02:53:54;93995.72;;;14.84;100.00
11077;BME280;5591;42.626;23.380;2022-09-12T02:56:25;93990.06;;;14.81;100.00
11077;BME280;5591;42.626;23.380;2022-09-12T02:58:54;93993.44;;;14.70;100.00
11077;BME280;5591;42.626;23.380;2022-09-12T03:01:29;93978.09;;;14.60;100.00
11077;BME280;5591;42.626;23.380;2022-09-12T03:04:18;94001.66;;;14.80;100.00
11077;BME280;5591;42.626;23.380;2022-09-12T03:06:56;94004.88;;;14.82;100.00
11077;BME280;5591;42.626;23.380;2022-09-12T03:09:29;93919.28;;;14.29;100.00
11077;BME280;5591;42.626;23.380;2022-09-12T03:12:12;94008.50;;;14.69;100.00
11077;BME280;5591;42.626;23.380;2022-09-12T03:14:56;94004.59;;;14.47;100.00
11077;BME280;5591;42.626;23.380;2022-09-12T03:17:34;94014.47;;;14.58;100.00
11077;BME280;5591;42.626;23.380;2022-09-12T03:20:10;94007.34;;;14.59;100.00
11077;BME280;5591;42.626;23.380;2022-09-12T03:22:46;94003.69;;;14.60;100.00
11077;BME280;5591;42.626;23.380;2022-09-12T03:25:20;93972.84;;;14.36;100.00
11077;BME280;5591;42.626;23.380;2022-09-12T03:27:53;93940.41;;;14.29;100.00
11077;BME280;5591;42.626;23.380;2022-09-12T03:30:22;94001.06;;;14.60;100.00
11077;BME280;5591;42.626;23.380;2022-09-12T03:32:50;94006.13;;;14.61;100.00
11077;BME280;5591;42.626;23.380;2022-09-12T03:35:22;93999.53;;;14.70;100.00
11077;BME280;5591;42.626;23.380;2022-09-12T03:37:50;93930.66;;;14.29;100.00
11077;BME280;5591;42.626;23.380;2022-09-12T03:40:17;94013.28;;;14.54;100.00
11077;BME280;5591;42.626;23.380;2022-09-12T03:42:44;93994.84;;;14.72;100.00
11077;BME280;5591;42.626;23.380;2022-09-12T03:45:12;94007.47;;;14.70;100.00
11077;BME280;5591;42.626;23.380;2022-09-12T03:47:39;94004.72;;;14.59;100.00
11077;BME280;5591;42.626;23.380;2022-09-12T03:50:06;94005.38;;;14.54;100.00
11077;BME280;5591;42.626;23.380;2022-09-12T03:52:34;93971.38;;;14.40;100.00
11077;BME280;5591;42.626;23.380;2022-09-12T03:55:01;93999.56;;;14.64;100.00
11077;BME280;5591;42.626;23.380;2022-09-12T03:57:28;94001.75;;;14.49;100.00
11077;BME280;5591;42.626;23.380;2022-09-12T03:59:55;93998.91;;;14.50;100.00
11077;BME280;5591;42.626;23.380;2022-09-12T04:02:22;94003.91;;;14.58;100.00
11077;BME280;5591;42.626;23.380;2022-09-12T04:04:49;93998.63;;;14.58;100.00
11077;BME280;5591;42.626;23.380;2022-09-12T04:07:16;94003.84;;;14.65;100.00
11077;BME280;5591;42.626;23.380;2022-09-12T04:09:44;94001.44;;;14.63;100.00
11077;BME280;5591;42.626;23.380;2022-09-12T04:12:11;93989.59;;;14.48;100.00
11077;BME280;5591;42.626;23.380;2022-09-12T04:14:39;94001.75;;;14.73;100.00
11077;BME280;5591;42.626;23.380;2022-09-12T04:17:06;94014.00;;;14.86;100.00
11077;BME280;5591;42.626;23.380;2022-09-12T04:19:33;94016.78;;;14.91;100.00
11077;BME280;5591;42.626;23.380;2022-09-12T04:21:59;94012.22;;;14.80;100.00
11077;BME280;5591;42.626;23.380;2022-09-12T04:24:26;94003.84;;;14.83;100.00
11077;BME280;5591;42.626;23.380;2022-09-12T04:26:54;94009.91;;;14.90;100.00
11077;BME280;5591;42.626;23.380;2022-09-12T04:29:21;94015.56;;;14.93;100.00
11077;BME280;5591;42.626;23.380;2022-09-12T04:31:48;94007.75;;;14.98;100.00
11077;BME280;5591;42.626;23.380;2022-09-12T04:34:15;94019.94;;;14.99;100.00
11077;BME280;5591;42.626;23.380;2022-09-12T04:36:42;94046.44;;;14.93;100.00
11077;BME280;5591;42.626;23.380;2022-09-12T04:39:09;94039.63;;;14.85;100.00
11077;BME280;5591;42.626;23.380;2022-09-12T04:41:38;94026.72;;;15.13;100.00
11077;BME280;5591;42.626;23.380;2022-09-12T04:44:10;94034.28;;;15.09;100.00
11077;BME280;5591;42.626;23.380;2022-09-12T04:46:40;93958.59;;;14.61;100.00
11077;BME280;5591;42.626;23.380;2022-09-12T04:49:07;94023.09;;;14.90;100.00
11077;BME280;5591;42.626;23.380;2022-09-12T04:51:36;94025.69;;;15.32;100.00
11077;BME280;5591;42.626;23.380;2022-09-12T04:54:06;94010.03;;;15.48;100.00
11077;BME280;5591;42.626;23.380;2022-09-12T04:56:36;94029.25;;;15.44;100.00
11077;BME280;5591;42.626;23.380;2022-09-12T04:59:03;93995.06;;;15.42;100.00
11077;BME280;5591;42.626;23.380;2022-09-12T05:01:31;94030.88;;;15.56;100.00
11077;BME280;5591;42.626;23.380;2022-09-12T05:03:58;94022.59;;;15.53;100.00
11077;BME280;5591;42.626;23.380;2022-09-12T05:06:27;94028.06;;;15.69;100.00
11077;BME280;5591;42.626;23.380;2022-09-12T05:08:55;94022.38;;;15.54;100.00
11077;BME280;5591;42.626;23.380;2022-09-12T05:11:25;94030.47;;;15.89;100.00
11077;BME280;5591;42.626;23.380;2022-09-12T05:13:53;94026.28;;;16.11;100.00
11077;BME280;5591;42.626;23.380;2022-09-12T05:16:20;94022.53;;;16.00;100.00
11077;BME280;5591;42.626;23.380;2022-09-12T05:18:49;94031.41;;;15.94;100.00
11077;BME280;5591;42.626;23.380;2022-09-12T05:21:17;94019.47;;;16.03;100.00
11077;BME280;5591;42.626;23.380;2022-09-12T05:23:45;94027.63;;;16.02;100.00
11077;BME280;5591;42.626;23.380;2022-09-12T05:26:14;94033.06;;;16.18;100.00
11077;BME280;5591;42.626;23.380;2022-09-12T05:28:43;94032.09;;;16.31;100.00
11077;BME280;5591;42.626;23.380;2022-09-12T05:31:11;94014.13;;;16.33;100.00
11077;BME280;5591;42.626;23.380;2022-09-12T05:33:40;94041.78;;;16.37;100.00
11077;BME280;5591;42.626;23.380;2022-09-12T05:36:11;94022.28;;;16.31;100.00
11077;BME280;5591;42.626;23.380;2022-09-12T05:38:38;94031.38;;;16.24;100.00
11077;BME280;5591;42.626;23.380;2022-09-12T05:41:07;94017.97;;;16.48;100.00
11077;BME280;5591;42.626;23.380;2022-09-12T05:43:35;94019.00;;;16.47;100.00
11077;BME280;5591;42.626;23.380;2022-09-12T05:46:04;94031.91;;;16.55;100.00
11077;BME280;5591;42.626;23.380;2022-09-12T05:48:33;94024.66;;;16.62;100.00
11077;BME280;5591;42.626;23.380;2022-09-12T05:51:01;93958.72;;;16.20;100.00
11077;BME280;5591;42.626;23.380;2022-09-12T05:53:30;93991.28;;;16.20;100.00
11077;BME280;5591;42.626;23.380;2022-09-12T05:56:08;94023.50;;;16.58;100.00
11077;BME280;5591;42.626;23.380;2022-09-12T05:58:37;94009.47;;;16.69;100.00
11077;BME280;5591;42.626;23.380;2022-09-12T06:01:05;94021.78;;;16.75;100.00
11077;BME280;5591;42.626;23.380;2022-09-12T06:03:33;94023.19;;;16.89;100.00
11077;BME280;5591;42.626;23.380;2022-09-12T06:06:02;94003.09;;;16.82;100.00
11077;BME280;5591;42.626;23.380;2022-09-12T06:08:31;94017.97;;;16.60;100.00
11077;BME280;5591;42.626;23.380;2022-09-12T06:10:59;94005.53;;;16.95;100.00
11077;BME280;5591;42.626;23.380;2022-09-12T06:13:26;93999.94;;;17.31;100.00
11077;BME280;5591;42.626;23.380;2022-09-12T06:15:53;93918.19;;;16.65;100.00
11077;BME280;5591;42.626;23.380;2022-09-12T06:18:20;94018.03;;;17.45;100.00
11077;BME280;5591;42.626;23.380;2022-09-12T06:20:47;94006.81;;;17.55;100.00
11077;BME280;5591;42.626;23.380;2022-09-12T06:23:14;93995.81;;;17.12;100.00
11077;BME280;5591;42.626;23.380;2022-09-12T06:25:46;94001.25;;;17.67;100.00
11077;BME280;5591;42.626;23.380;2022-09-12T06:28:14;94009.84;;;17.86;100.00
11077;BME280;5591;42.626;23.380;2022-09-12T06:30:41;94012.75;;;18.01;100.00
11077;BME280;5591;42.626;23.380;2022-09-12T06:33:08;94026.63;;;17.36;100.00
11077;BME280;5591;42.626;23.380;2022-09-12T06:35:36;94038.81;;;17.14;100.00
11077;BME280;5591;42.626;23.380;2022-09-12T06:38:03;94025.53;;;17.25;100.00
11077;BME280;5591;42.626;23.380;2022-09-12T06:40:30;94027.97;;;17.38;100.00
11077;BME280;5591;42.626;23.380;2022-09-12T06:42:58;94037.81;;;17.03;100.00
11077;BME280;5591;42.626;23.380;2022-09-12T06:45:25;94013.09;;;17.26;100.00
11077;BME280;5591;42.626;23.380;2022-09-12T06:47:51;93989.16;;;16.98;100.00
11077;BME280;5591;42.626;23.380;2022-09-12T06:50:18;94021.63;;;17.39;100.00
11077;BME280;5591;42.626;23.380;2022-09-12T06:52:47;94035.72;;;17.17;100.00
11077;BME280;5591;42.626;23.380;2022-09-12T06:55:15;94033.75;;;17.01;100.00
11077;BME280;5591;42.626;23.380;2022-09-12T06:57:41;94039.94;;;17.29;100.00
11077;BME280;5591;42.626;23.380;2022-09-12T07:00:12;93937.34;;;16.56;100.00
11077;BME280;5591;42.626;23.380;2022-09-12T07:02:39;94023.47;;;17.39;100.00
11077;BME280;5591;42.626;23.380;2022-09-12T07:05:06;94043.75;;;17.45;100.00
11077;BME280;5591;42.626;23.380;2022-09-12T07:07:33;94029.06;;;17.65;100.00
11077;BME280;5591;42.626;23.380;2022-09-12T07:10:00;94050.94;;;17.44;100.00
11077;BME280;5591;42.626;23.380;2022-09-12T07:12:28;94042.28;;;17.76;100.00
11077;BME280;5591;42.626;23.380;2022-09-12T07:14:54;94038.66;;;17.94;100.00
11077;BME280;5591;42.626;23.380;2022-09-12T07:17:23;94075.88;;;17.71;100.00
11077;BME280;5591;42.626;23.380;2022-09-12T07:19:49;94051.34;;;17.92;100.00
11077;BME280;5591;42.626;23.380;2022-09-12T07:22:16;94061.69;;;17.77;100.00
11077;BME280;5591;42.626;23.380;2022-09-12T07:24:43;94051.69;;;18.23;100.00
11077;BME280;5591;42.626;23.380;2022-09-12T07:27:10;94056.25;;;18.39;100.00
11077;BME280;5591;42.626;23.380;2022-09-12T07:29:37;94019.44;;;18.03;100.00
11077;BME280;5591;42.626;23.380;2022-09-12T07:32:05;94043.56;;;18.02;100.00
11077;BME280;5591;42.626;23.380;2022-09-12T07:34:33;94059.41;;;18.25;100.00
11077;BME280;5591;42.626;23.380;2022-09-12T07:37:00;94064.97;;;17.95;100.00
11077;BME280;5591;42.626;23.380;2022-09-12T07:39:27;94085.66;;;17.82;100.00
11077;BME280;5591;42.626;23.380;2022-09-12T07:41:54;94083.38;;;18.41;100.00
11077;BME280;5591;42.626;23.380;2022-09-12T07:44:21;94040.06;;;18.41;100.00
11077;BME280;5591;42.626;23.380;2022-09-12T07:46:48;94069.09;;;18.03;100.00
11077;BME280;5591;42.626;23.380;2022-09-12T07:49:16;94054.47;;;18.00;100.00
11077;BME280;5591;42.626;23.380;2022-09-12T07:51:45;94047.88;;;18.31;100.00
11077;BME280;5591;42.626;23.380;2022-09-12T07:54:11;94068.94;;;18.09;100.00
11077;BME280;5591;42.626;23.380;2022-09-12T07:56:38;94068.69;;;18.22;100.00
11077;BME280;5591;42.626;23.380;2022-09-12T07:59:05;94059.63;;;18.51;100.00
11077;BME280;5591;42.626;23.380;2022-09-12T08:01:32;94029.69;;;18.11;100.00
11077;BME280;5591;42.626;23.380;2022-09-12T08:03:59;94058.34;;;18.54;100.00
11077;BME280;5591;42.626;23.380;2022-09-12T08:06:28;94053.31;;;18.52;100.00
11077;BME280;5591;42.626;23.380;2022-09-12T08:08:58;94057.66;;;18.30;100.00
11077;BME280;5591;42.626;23.380;2022-09-12T08:11:27;94084.59;;;18.50;100.00
11077;BME280;5591;42.626;23.380;2022-09-12T08:13:55;94072.69;;;18.53;100.00
11077;BME280;5591;42.626;23.380;2022-09-12T08:16:23;94068.22;;;18.70;100.00
11077;BME280;5591;42.626;23.380;2022-09-12T08:18:51;94088.34;;;18.82;100.00
11077;BME280;5591;42.626;23.380;2022-09-12T08:21:19;94072.31;;;19.10;100.00
11077;BME280;5591;42.626;23.380;2022-09-12T08:23:50;94090.94;;;18.94;100.00
11077;BME280;5591;42.626;23.380;2022-09-12T08:26:19;94060.56;;;19.23;100.00
11077;BME280;5591;42.626;23.380;2022-09-12T08:28:46;94063.44;;;18.88;100.00
11077;BME280;5591;42.626;23.380;2022-09-12T08:31:16;94055.69;;;19.20;100.00
11077;BME280;5591;42.626;23.380;2022-09-12T08:33:43;94058.28;;;18.98;100.00
11077;BME280;5591;42.626;23.380;2022-09-12T08:36:12;94016.94;;;19.24;100.00
11077;BME280;5591;42.626;23.380;2022-09-12T08:38:40;94062.03;;;19.73;100.00
11077;BME280;5591;42.626;23.380;2022-09-12T08:41:11;93997.47;;;19.23;100.00
11077;BME280;5591;42.626;23.380;2022-09-12T08:46:57;94058.72;;;19.66;100.00
11077;BME280;5591;42.626;23.380;2022-09-12T08:49:31;94056.34;;;19.10;100.00
11077;BME280;5591;42.626;23.380;2022-09-12T08:52:05;94033.44;;;19.09;100.00
11077;BME280;5591;42.626;23.380;2022-09-12T08:54:36;94050.97;;;19.43;100.00
11077;BME280;5591;42.626;23.380;2022-09-12T08:57:04;94048.78;;;19.57;100.00
11077;BME280;5591;42.626;23.380;2022-09-12T08:59:36;94064.56;;;19.63;100.00
11077;BME280;5591;42.626;23.380;2022-09-12T09:02:20;94060.41;;;19.51;100.00
11077;BME280;5591;42.626;23.380;2022-09-12T09:04:55;94048.00;;;19.40;100.00
11077;BME280;5591;42.626;23.380;2022-09-12T09:07:41;94051.13;;;19.96;100.00
11077;BME280;5591;42.626;23.380;2022-09-12T09:10:18;94042.72;;;20.04;100.00
11077;BME280;5591;42.626;23.380;2022-09-12T09:12:51;94052.00;;;19.59;100.00
11077;BME280;5591;42.626;23.380;2022-09-12T09:15:35;94040.41;;;19.70;100.00
11077;BME280;5591;42.626;23.380;2022-09-12T09:18:11;94023.19;;;19.77;100.00
11077;BME280;5591;42.626;23.380;2022-09-12T09:20:45;94060.66;;;19.49;100.00
11077;BME280;5591;42.626;23.380;2022-09-12T09:23:18;94028.34;;;19.62;100.00
11077;BME280;5591;42.626;23.380;2022-09-12T09:25:49;94024.06;;;19.61;100.00
11077;BME280;5591;42.626;23.380;2022-09-12T09:28:20;94038.41;;;19.39;100.00
11077;BME280;5591;42.626;23.380;2022-09-12T09:30:49;94052.13;;;19.69;100.00
11077;BME280;5591;42.626;23.380;2022-09-12T09:33:20;94002.53;;;19.89;100.00
11077;BME280;5591;42.626;23.380;2022-09-12T09:35:54;94048.50;;;19.58;100.00
11077;BME280;5591;42.626;23.380;2022-09-12T09:38:24;94038.66;;;20.02;100.00
11077;BME280;5591;42.626;23.380;2022-09-12T09:41:19;94015.75;;;19.79;100.00
11077;BME280;5591;42.626;23.380;2022-09-12T09:43:48;93972.00;;;19.49;100.00
11077;BME280;5591;42.626;23.380;2022-09-12T09:46:15;94014.19;;;20.05;100.00
11077;BME280;5591;42.626;23.380;2022-09-12T09:48:45;94027.41;;;19.73;100.00
11077;BME280;5591;42.626;23.380;2022-09-12T09:51:16;94062.88;;;19.57;100.00
11077;BME280;5591;42.626;23.380;2022-09-12T09:53:47;94039.72;;;19.58;100.00
11077;BME280;5591;42.626;23.380;2022-09-12T09:56:26;94008.13;;;19.88;100.00
11077;BME280;5591;42.626;23.380;2022-09-12T09:58:53;94002.16;;;20.55;100.00
11077;BME280;5591;42.626;23.380;2022-09-12T10:01:20;93983.22;;;20.25;96.49
11077;BME280;5591;42.626;23.380;2022-09-12T10:03:49;93971.97;;;19.70;100.00
11077;BME280;5591;42.626;23.380;2022-09-12T10:06:23;94042.94;;;20.03;100.00
11077;BME280;5591;42.626;23.380;2022-09-12T10:08:50;94016.44;;;19.91;98.56
11077;BME280;5591;42.626;23.380;2022-09-12T10:11:28;94018.84;;;19.93;100.00
11077;BME280;5591;42.626;23.380;2022-09-12T10:13:56;93985.72;;;19.62;99.38
11077;BME280;5591;42.626;23.380;2022-09-12T10:16:26;94065.84;;;19.61;100.00
11077;BME280;5591;42.626;23.380;2022-09-12T10:18:56;94018.28;;;19.91;100.00
11077;BME280;5591;42.626;23.380;2022-09-12T10:21:31;93994.25;;;19.86;100.00
11077;BME280;5591;42.626;23.380;2022-09-12T10:24:09;94007.16;;;19.72;100.00
11077;BME280;5591;42.626;23.380;2022-09-12T10:26:40;94007.19;;;19.77;97.76
11077;BME280;5591;42.626;23.380;2022-09-12T10:29:14;94008.72;;;19.95;100.00
11077;BME280;5591;42.626;23.380;2022-09-12T10:31:47;93981.88;;;20.01;99.61
11077;BME280;5591;42.626;23.380;2022-09-12T10:34:23;93998.81;;;20.38;100.00
11077;BME280;5591;42.626;23.380;2022-09-12T10:36:54;94015.56;;;20.07;100.00
11077;BME280;5591;42.626;23.380;2022-09-12T10:39:25;94000.19;;;20.14;98.85
11077;BME280;5591;42.626;23.380;2022-09-12T10:41:52;93990.38;;;19.98;97.87
11077;BME280;5591;42.626;23.380;2022-09-12T10:44:24;94023.34;;;20.40;98.32
11077;BME280;5591;42.626;23.380;2022-09-12T10:46:52;93973.13;;;20.27;97.38
11077;BME280;5591;42.626;23.380;2022-09-12T10:49:24;93973.50;;;20.40;98.62
11077;BME280;5591;42.626;23.380;2022-09-12T10:51:52;93970.16;;;20.24;100.00
11077;BME280;5591;42.626;23.380;2022-09-12T10:54:21;94044.88;;;20.33;100.00
11077;BME280;5591;42.626;23.380;2022-09-12T11:00:07;93990.72;;;20.59;92.82
11077;BME280;5591;42.626;23.380;2022-09-12T11:02:49;94006.34;;;21.09;88.53
11077;BME280;5591;42.626;23.380;2022-09-12T11:05:27;93969.63;;;20.89;89.37
11077;BME280;5591;42.626;23.380;2022-09-12T11:08:08;93989.38;;;20.88;90.46
11077;BME280;5591;42.626;23.380;2022-09-12T11:10:44;93966.41;;;20.87;88.44
11077;BME280;5591;42.626;23.380;2022-09-12T11:13:25;93980.34;;;20.94;92.91
11077;BME280;5591;42.626;23.380;2022-09-12T11:16:14;93994.41;;;20.85;92.48
11077;BME280;5591;42.626;23.380;2022-09-12T11:19:00;93985.84;;;21.19;89.39
11077;BME280;5591;42.626;23.380;2022-09-12T11:21:45;93989.97;;;21.00;88.51
11077;BME280;5591;42.626;23.380;2022-09-12T11:24:34;94000.00;;;21.20;85.92
11077;BME280;5591;42.626;23.380;2022-09-12T11:27:18;93992.00;;;21.20;89.08
11077;BME280;5591;42.626;23.380;2022-09-12T11:29:53;93993.34;;;21.74;85.16
11077;BME280;5591;42.626;23.380;2022-09-12T11:32:42;93966.19;;;22.07;81.06
11077;BME280;5591;42.626;23.380;2022-09-12T11:35:18;93993.66;;;21.31;83.62
11077;BME280;5591;42.626;23.380;2022-09-12T11:37:58;94041.53;;;21.06;85.98
11077;BME280;5591;42.626;23.380;2022-09-12T11:40:33;94007.91;;;20.73;90.64
11077;BME280;5591;42.626;23.380;2022-09-12T11:43:09;93997.16;;;22.03;84.64
11077;BME280;5591;42.626;23.380;2022-09-12T11:45:40;94002.66;;;22.93;73.82
11077;BME280;5591;42.626;23.380;2022-09-12T11:48:13;93988.19;;;22.89;73.65
11077;BME280;5591;42.626;23.380;2022-09-12T11:50:42;93991.66;;;22.94;74.65
11077;BME280;5591;42.626;23.380;2022-09-12T11:53:15;93981.69;;;22.25;80.22
11077;BME280;5591;42.626;23.380;2022-09-12T11:55:50;94001.31;;;23.05;78.61
11077;BME280;5591;42.626;23.380;2022-09-12T11:58:22;94000.25;;;22.56;84.40
11077;BME280;5591;42.626;23.380;2022-09-12T12:00:52;93993.97;;;23.60;75.08
11077;BME280;5591;42.626;23.380;2022-09-12T12:03:25;94003.44;;;22.78;75.81
11077;BME280;5591;42.626;23.380;2022-09-12T12:05:58;94009.59;;;23.03;78.24
11077;BME280;5591;42.626;23.380;2022-09-12T12:08:31;94008.53;;;22.60;81.45
11077;BME280;5591;42.626;23.380;2022-09-12T12:10:59;93997.56;;;23.21;72.76
11077;BME280;5591;42.626;23.380;2022-09-12T12:13:29;93992.38;;;23.54;71.14
11077;BME280;5591;42.626;23.380;2022-09-12T12:15:59;93878.25;;;22.40;69.36
11077;BME280;5591;42.626;23.380;2022-09-12T12:18:29;94002.38;;;23.24;70.11
11077;BME280;5591;42.626;23.380;2022-09-12T12:21:19;93985.16;;;23.50;67.48
11077;BME280;5591;42.626;23.380;2022-09-12T12:24:10;94001.25;;;23.35;65.87
11077;BME280;5591;42.626;23.380;2022-09-12T12:26:44;94020.78;;;23.50;62.51
11077;BME280;5591;42.626;23.380;2022-09-12T12:29:12;93983.41;;;23.94;60.07
11077;BME280;5591;42.626;23.380;2022-09-12T12:32:23;93997.78;;;23.39;65.72
11077;BME280;5591;42.626;23.380;2022-09-12T12:35:00;93990.31;;;22.37;75.34
11077;BME280;5591;42.626;23.380;2022-09-12T12:37:49;93983.03;;;23.42;66.67
11077;BME280;5591;42.626;23.380;2022-09-12T12:40:23;93964.41;;;22.52;74.00
11077;BME280;5591;42.626;23.380;2022-09-12T12:46:08;93994.25;;;21.48;86.89
11077;BME280;5591;42.626;23.380;2022-09-12T12:48:53;93990.28;;;21.04;88.84
11077;BME280;5591;42.626;23.380;2022-09-12T12:51:47;93999.47;;;21.74;81.92
11077;BME280;5591;42.626;23.380;2022-09-12T12:54:30;93974.13;;;23.61;63.94
11077;BME280;5591;42.626;23.380;2022-09-12T12:57:02;94005.56;;;23.41;66.78
11077;BME280;5591;42.626;23.380;2022-09-12T12:59:30;93986.53;;;23.42;68.61
11077;BME280;5591;42.626;23.380;2022-09-12T13:01:58;93964.94;;;23.87;61.90
11077;BME280;5591;42.626;23.380;2022-09-12T13:04:29;93990.38;;;23.95;64.96
11077;BME280;5591;42.626;23.380;2022-09-12T13:07:00;93983.94;;;24.01;65.92
11077;BME280;5591;42.626;23.380;2022-09-12T13:09:31;93975.97;;;23.66;62.44
11077;BME280;5591;42.626;23.380;2022-09-12T13:12:02;93996.91;;;24.71;57.67
11077;BME280;5591;42.626;23.380;2022-09-12T13:14:46;94001.31;;;24.03;59.82
11077;BME280;5591;42.626;23.380;2022-09-12T13:17:17;93996.50;;;23.17;65.87
11077;BME280;5591;42.626;23.380;2022-09-12T13:19:47;93993.78;;;23.12;70.38
11077;BME280;5591;42.626;23.380;2022-09-12T13:22:14;94016.75;;;23.63;61.73
11077;BME280;5591;42.626;23.380;2022-09-12T13:24:45;94040.53;;;23.84;63.18
11077;BME280;5591;42.626;23.380;2022-09-12T13:27:17;93991.25;;;23.75;65.96